Time;durP1;ratioP1;P1;durP2;ratioP2;P2;SDS_P1;SDS_P2;PMS_P1;PMS_P2;Temp;Humidity;BMP_temperature;BMP_pressure;BME280_temperature;BME280_humidity;BME280_pressure;Samples;Min_cycle;Max_cycle;Signal;HPM_P1;HPM_P2
2022/05/14 00:00:51;;;;;;;27.50;5.20;;;;;;;;;;5047672;28;20025;-75
2022/05/14 00:03:17;;;;;;;33.55;6.28;;;;;;;;;;5035973;28;20064;-74
2022/05/14 00:05:44;;;;;;;22.90;5.43;;;;;;;;;;5050235;28;20074;-74
2022/05/14 00:08:11;;;;;;;17.77;4.63;;;;;;;;;;5052010;28;20104;-75
2022/05/14 00:13:23;;;;;;;22.65;4.38;;;;;;;;;;5048976;28;20036;-75
2022/05/14 00:15:49;;;;;;;27.55;5.00;;;;;;;;;;5055804;28;20037;-75
2022/05/14 00:18:15;;;;;;;23.55;5.75;;;;;;;;;;5049774;28;20049;-75
2022/05/14 00:20:41;;;;;;;21.67;5.13;;;;;;;;;;5031925;28;20037;-75
2022/05/14 00:23:07;;;;;;;17.58;4.50;;;;;;;;;;5045079;28;20025;-75
2022/05/14 00:25:34;;;;;;;30.88;6.07;;;;;;;;;;5034520;28;20041;-75
2022/05/14 00:28:00;;;;;;;29.40;5.90;;;;;;;;;;5048457;28;20033;-75
2022/05/14 00:30:28;;;;;;;31.50;5.90;;;;;;;;;;5055204;28;20032;-74
2022/05/14 00:32:54;;;;;;;26.52;6.15;;;;;;;;;;5045831;28;20509;-74
2022/05/14 00:35:20;;;;;;;31.15;5.82;;;;;;;;;;5048915;28;20037;-75
2022/05/14 00:37:47;;;;;;;22.92;4.30;;;;;;;;;;5051390;28;20432;-75
2022/05/14 00:40:18;;;;;;;29.42;5.57;;;;;;;;;;5051505;28;20021;-74
2022/05/14 00:42:44;;;;;;;28.00;5.35;;;;;;;;;;5049071;28;20033;-74
2022/05/14 00:45:12;;;;;;;34.35;6.97;;;;;;;;;;5052227;28;20051;-75
2022/05/14 00:47:38;;;;;;;26.13;5.15;;;;;;;;;;5052669;28;20027;-75
2022/05/14 00:50:16;;;;;;;24.67;5.20;;;;;;;;;;5051056;28;20032;-75
2022/05/14 00:52:42;;;;;;;26.52;5.88;;;;;;;;;;5044804;28;20420;-75
2022/05/14 00:55:08;;;;;;;29.08;5.13;;;;;;;;;;5051011;28;20043;-74
2022/05/14 00:57:36;;;;;;;41.92;6.60;;;;;;;;;;5032235;28;20098;-74
2022/05/14 01:00:05;;;;;;;29.13;6.22;;;;;;;;;;5047277;28;20040;-74
2022/05/14 01:02:31;;;;;;;31.20;5.78;;;;;;;;;;5048049;28;20036;-75
2022/05/14 01:04:58;;;;;;;41.67;7.50;;;;;;;;;;5049970;28;20036;-75
2022/05/14 01:07:27;;;;;;;32.38;5.97;;;;;;;;;;5050764;28;20036;-74
2022/05/14 01:09:59;;;;;;;30.77;6.32;;;;;;;;;;5051235;28;20389;-74
2022/05/14 01:12:27;;;;;;;36.55;6.85;;;;;;;;;;5046797;28;20095;-74
2022/05/14 01:14:53;;;;;;;29.35;5.68;;;;;;;;;;5052042;28;20039;-74
2022/05/14 01:17:20;;;;;;;23.02;5.70;;;;;;;;;;5051970;28;20021;-74
2022/05/14 01:19:46;;;;;;;30.30;6.25;;;;;;;;;;5050965;28;20458;-74
2022/05/14 01:22:12;;;;;;;30.70;6.25;;;;;;;;;;5030742;28;20033;-74
2022/05/14 01:27:26;;;;;;;28.13;6.00;;;;;;;;;;5051517;28;20047;-74
2022/05/14 01:29:52;;;;;;;33.55;7.18;;;;;;;;;;5048278;28;20052;-74
2022/05/14 01:32:18;;;;;;;40.75;6.78;;;;;;;;;;5056218;28;20473;-74
2022/05/14 01:34:44;;;;;;;37.67;8.20;;;;;;;;;;5049317;28;20025;-74
2022/05/14 01:37:10;;;;;;;28.48;6.03;;;;;;;;;;5049272;28;20392;-74
2022/05/14 01:39:37;;;;;;;36.28;6.43;;;;;;;;;;5031531;28;20480;-74
2022/05/14 01:42:04;;;;;;;32.00;6.20;;;;;;;;;;5033050;28;20057;-74
2022/05/14 01:44:30;;;;;;;27.08;5.97;;;;;;;;;;5030676;28;20068;-74
2022/05/14 01:46:56;;;;;;;34.28;6.57;;;;;;;;;;5050553;28;20033;-74
2022/05/14 01:49:22;;;;;;;31.02;7.13;;;;;;;;;;5050055;28;20048;-74
2022/05/14 01:51:48;;;;;;;28.55;6.88;;;;;;;;;;5030092;28;20021;-74
2022/05/14 01:54:15;;;;;;;41.72;7.35;;;;;;;;;;5039192;28;20033;-74
2022/05/14 01:56:41;;;;;;;30.77;5.85;;;;;;;;;;5047158;28;20033;-74
2022/05/14 01:59:07;;;;;;;46.63;8.07;;;;;;;;;;5045300;28;20033;-74
2022/05/14 02:01:34;;;;;;;39.05;6.88;;;;;;;;;;5040542;28;20503;-74
2022/05/14 02:04:02;;;;;;;35.83;7.68;;;;;;;;;;5032566;28;20032;-74
2022/05/14 02:06:29;;;;;;;48.08;8.68;;;;;;;;;;5030361;28;20043;-74
2022/05/14 02:08:55;;;;;;;36.85;7.43;;;;;;;;;;5032161;28;20037;-74
2022/05/14 02:11:22;;;;;;;38.65;9.02;;;;;;;;;;5049747;28;20029;-74
2022/05/14 02:13:49;;;;;;;28.00;7.22;;;;;;;;;;5048240;28;20025;-74
2022/05/14 02:16:15;;;;;;;42.05;8.45;;;;;;;;;;5043627;28;20041;-74
2022/05/14 02:18:41;;;;;;;28.70;6.43;;;;;;;;;;5046530;28;20132;-74
2022/05/14 02:21:07;;;;;;;38.38;7.63;;;;;;;;;;5047303;28;20021;-74
2022/05/14 02:23:36;;;;;;;41.95;7.53;;;;;;;;;;5049169;28;20150;-74
2022/05/14 02:26:02;;;;;;;29.45;7.07;;;;;;;;;;5032973;28;20038;-74
2022/05/14 02:28:28;;;;;;;32.13;7.10;;;;;;;;;;5045054;28;20038;-74
2022/05/14 02:30:55;;;;;;;28.95;7.45;;;;;;;;;;5054582;28;20028;-73
2022/05/14 02:33:21;;;;;;;36.38;8.90;;;;;;;;;;5046839;28;20079;-75
2022/05/14 02:35:47;;;;;;;42.50;7.90;;;;;;;;;;5025322;28;20040;-75
2022/05/14 02:38:15;;;;;;;40.70;8.25;;;;;;;;;;5050683;28;20052;-75
2022/05/14 02:40:41;;;;;;;28.13;7.30;;;;;;;;;;5048324;28;20029;-75
2022/05/14 02:43:07;;;;;;;30.08;7.45;;;;;;;;;;5032343;28;20033;-76
2022/05/14 02:45:33;;;;;;;29.95;6.60;;;;;;;;;;5049055;28;20063;-75
2022/05/14 02:47:59;;;;;;;44.92;9.68;;;;;;;;;;5050546;28;20047;-76
2022/05/14 02:50:25;;;;;;;35.08;8.07;;;;;;;;;;5045345;28;20033;-76
2022/05/14 02:52:53;;;;;;;38.55;8.65;;;;;;;;;;5030720;28;20136;-75
2022/05/14 02:55:19;;;;;;;35.97;8.50;;;;;;;;;;5035779;28;20040;-75
2022/05/14 02:57:45;;;;;;;37.67;8.27;;;;;;;;;;5042821;28;20032;-75
2022/05/14 03:00:13;;;;;;;38.95;10.13;;;;;;;;;;5049148;28;20021;-76
2022/05/14 03:02:39;;;;;;;39.83;8.13;;;;;;;;;;5041314;28;20043;-76
2022/05/14 03:05:06;;;;;;;39.55;9.30;;;;;;;;;;5031966;28;20052;-76
2022/05/14 03:07:32;;;;;;;44.50;9.13;;;;;;;;;;5052007;28;20029;-75
2022/05/14 03:09:58;;;;;;;38.58;8.95;;;;;;;;;;5054901;28;20075;-75
2022/05/14 03:12:24;;;;;;;41.25;7.53;;;;;;;;;;5050013;28;20032;-75
2022/05/14 03:14:51;;;;;;;35.08;8.35;;;;;;;;;;5034595;28;20025;-75
2022/05/14 03:17:17;;;;;;;39.72;8.68;;;;;;;;;;5052143;28;20021;-75
2022/05/14 03:19:43;;;;;;;33.45;8.52;;;;;;;;;;5052648;28;20128;-75
2022/05/14 03:22:10;;;;;;;35.42;8.98;;;;;;;;;;5051243;28;20159;-75
2022/05/14 03:24:36;;;;;;;38.90;10.68;;;;;;;;;;5049206;28;20032;-75
2022/05/14 03:27:03;;;;;;;38.92;9.00;;;;;;;;;;5035025;28;20029;-75
2022/05/14 03:29:29;;;;;;;39.75;7.85;;;;;;;;;;5034151;28;20090;-75
2022/05/14 03:31:57;;;;;;;36.30;8.10;;;;;;;;;;5058369;28;20025;-75
2022/05/14 03:34:23;;;;;;;40.20;8.15;;;;;;;;;;5051267;28;20043;-75
2022/05/14 03:36:50;;;;;;;48.40;9.88;;;;;;;;;;5031487;28;20052;-75
2022/05/14 03:39:16;;;;;;;39.88;8.88;;;;;;;;;;5054313;28;20036;-75
2022/05/14 03:41:42;;;;;;;52.95;9.27;;;;;;;;;;5051388;28;20040;-75
2022/05/14 03:44:09;;;;;;;40.47;8.57;;;;;;;;;;5052539;28;20033;-75
2022/05/14 03:46:35;;;;;;;34.13;8.50;;;;;;;;;;5050109;28;20124;-75
2022/05/14 03:49:01;;;;;;;35.28;8.38;;;;;;;;;;5053751;28;20068;-75
2022/05/14 03:51:28;;;;;;;46.92;9.18;;;;;;;;;;5051177;28;20358;-75
2022/05/14 03:53:54;;;;;;;46.97;7.93;;;;;;;;;;5027781;28;20044;-75
2022/05/14 03:56:20;;;;;;;36.17;7.47;;;;;;;;;;5042377;28;20057;-75
2022/05/14 03:58:46;;;;;;;38.50;7.78;;;;;;;;;;5050611;28;20060;-74
2022/05/14 04:01:13;;;;;;;42.53;8.50;;;;;;;;;;5062086;28;20066;-75
2022/05/14 04:03:39;;;;;;;30.27;8.65;;;;;;;;;;5050823;28;20025;-75
2022/05/14 04:06:06;;;;;;;27.88;7.90;;;;;;;;;;5050005;28;20117;-75
2022/05/14 04:08:32;;;;;;;37.45;9.15;;;;;;;;;;5051304;28;20096;-75
2022/05/14 04:10:58;;;;;;;32.45;7.65;;;;;;;;;;5050822;28;20032;-75
2022/05/14 04:13:26;;;;;;;45.85;8.48;;;;;;;;;;5052403;28;20040;-75
2022/05/14 04:15:52;;;;;;;40.05;8.30;;;;;;;;;;5059847;28;20040;-75
2022/05/14 04:18:24;;;;;;;33.05;8.85;;;;;;;;;;5052550;28;20116;-75
2022/05/14 04:20:57;;;;;;;39.58;9.82;;;;;;;;;;5053050;28;20021;-75
2022/05/14 04:23:24;;;;;;;33.05;7.47;;;;;;;;;;5047725;28;20473;-75
2022/05/14 04:25:51;;;;;;;36.67;8.32;;;;;;;;;;5052800;28;20063;-75
2022/05/14 04:28:17;;;;;;;39.05;7.82;;;;;;;;;;5041273;28;20029;-75
2022/05/14 04:30:44;;;;;;;47.42;9.15;;;;;;;;;;5043404;28;20033;-75
2022/05/14 04:33:10;;;;;;;45.60;9.18;;;;;;;;;;5048853;28;20025;-75
2022/05/14 04:35:36;;;;;;;37.08;8.82;;;;;;;;;;5050602;28;20090;-75
2022/05/14 04:38:02;;;;;;;37.47;7.85;;;;;;;;;;5042202;28;20044;-75
2022/05/14 04:40:28;;;;;;;51.47;9.20;;;;;;;;;;5050596;28;20577;-75
2022/05/14 04:42:54;;;;;;;44.00;9.52;;;;;;;;;;5033598;28;20397;-75
2022/05/14 04:45:20;;;;;;;41.08;10.00;;;;;;;;;;5054168;28;20064;-75
2022/05/14 04:47:46;;;;;;;48.20;8.80;;;;;;;;;;5046809;28;20139;-75
2022/05/14 04:50:13;;;;;;;35.78;7.85;;;;;;;;;;5039967;28;20088;-75
2022/05/14 04:52:39;;;;;;;46.50;10.05;;;;;;;;;;5041685;28;21949;-74
2022/05/14 04:55:06;;;;;;;41.65;9.07;;;;;;;;;;5042162;28;20040;-74
2022/05/14 04:57:32;;;;;;;37.00;8.32;;;;;;;;;;5047030;28;20075;-74
2022/05/14 04:59:58;;;;;;;39.70;8.57;;;;;;;;;;5048313;28;20037;-75
2022/05/14 05:05:09;;;;;;;34.33;8.40;;;;;;;;;;5038329;28;20123;-73
2022/05/14 05:07:35;;;;;;;31.25;8.30;;;;;;;;;;5042889;28;20040;-78
2022/05/14 05:10:01;;;;;;;41.50;7.93;;;;;;;;;;5022037;28;20032;-77
2022/05/14 05:12:27;;;;;;;42.67;9.73;;;;;;;;;;5050340;28;20492;-77
2022/05/14 05:14:53;;;;;;;36.85;8.40;;;;;;;;;;5046631;28;20040;-77
2022/05/14 05:17:19;;;;;;;35.65;7.95;;;;;;;;;;5058832;28;20048;-79
2022/05/14 05:19:45;;;;;;;42.08;11.15;;;;;;;;;;5046888;28;20096;-77
2022/05/14 05:22:11;;;;;;;34.92;8.02;;;;;;;;;;5047185;28;20033;-77
2022/05/14 05:24:37;;;;;;;36.30;7.93;;;;;;;;;;5030166;28;20033;-76
2022/05/14 05:27:04;;;;;;;50.63;9.57;;;;;;;;;;5046168;28;20069;-77
2022/05/14 05:29:30;;;;;;;36.58;8.68;;;;;;;;;;5021930;28;20057;-78
2022/05/14 05:31:56;;;;;;;35.72;8.63;;;;;;;;;;5048147;28;20515;-76
2022/05/14 05:34:22;;;;;;;45.75;9.68;;;;;;;;;;5008212;28;20037;-78
2022/05/14 05:36:48;;;;;;;31.85;8.38;;;;;;;;;;5051125;28;20060;-79
2022/05/14 05:39:14;;;;;;;42.60;10.48;;;;;;;;;;5049329;28;20044;-77
2022/05/14 05:41:40;;;;;;;44.30;8.50;;;;;;;;;;5038983;28;20048;-78
2022/05/14 05:44:06;;;;;;;42.10;9.77;;;;;;;;;;5031512;28;21941;-76
2022/05/14 05:46:33;;;;;;;39.33;11.77;;;;;;;;;;5033805;28;20516;-77
2022/05/14 05:48:59;;;;;;;36.88;7.57;;;;;;;;;;5034119;28;20032;-77
2022/05/14 05:51:25;;;;;;;34.55;8.32;;;;;;;;;;5043291;28;20044;-77
2022/05/14 05:56:56;;;;;;;35.38;7.82;;;;;;;;;;5048773;28;20048;-76
2022/05/14 05:59:22;;;;;;;34.70;7.97;;;;;;;;;;5043928;28;20044;-77
2022/05/14 06:01:49;;;;;;;32.30;7.82;;;;;;;;;;5055130;28;20030;-77
2022/05/14 06:04:15;;;;;;;31.25;7.38;;;;;;;;;;5049380;28;20029;-77
2022/05/14 06:06:42;;;;;;;38.10;8.85;;;;;;;;;;5049317;28;20025;-76
2022/05/14 06:09:10;;;;;;;36.35;6.97;;;;;;;;;;5022905;28;20753;-77
2022/05/14 06:11:36;;;;;;;29.85;6.63;;;;;;;;;;5032126;28;20028;-78
2022/05/14 06:14:02;;;;;;;38.92;8.63;;;;;;;;;;5046888;28;20042;-77
2022/05/14 06:16:28;;;;;;;23.80;5.03;;;;;;;;;;5044421;28;20036;-77
2022/05/14 06:18:54;;;;;;;29.92;6.90;;;;;;;;;;5038442;28;20174;-78
2022/05/14 06:21:20;;;;;;;39.88;14.88;;;;;;;;;;5039704;28;20037;-76
2022/05/14 06:23:46;;;;;;;27.80;6.50;;;;;;;;;;5041925;28;20075;-75
2022/05/14 06:26:12;;;;;;;30.02;5.55;;;;;;;;;;5044760;28;20111;-76
2022/05/14 06:28:38;;;;;;;20.98;5.80;;;;;;;;;;5047035;28;20486;-77
2022/05/14 06:31:04;;;;;;;29.52;4.32;;;;;;;;;;5046948;28;20995;-75
2022/05/14 06:33:31;;;;;;;34.88;7.10;;;;;;;;;;5035009;28;20060;-76
2022/05/14 06:35:58;;;;;;;25.42;4.93;;;;;;;;;;5028930;28;20063;-76
2022/05/14 06:38:24;;;;;;;26.25;4.97;;;;;;;;;;5050950;28;20036;-76
2022/05/14 06:40:50;;;;;;;24.08;5.38;;;;;;;;;;5029619;28;20087;-76
2022/05/14 06:43:17;;;;;;;30.33;5.47;;;;;;;;;;5050887;28;20028;-76
2022/05/14 06:45:45;;;;;;;24.02;4.22;;;;;;;;;;5039517;28;20032;-76
2022/05/14 06:48:12;;;;;;;22.08;4.57;;;;;;;;;;5046561;28;20032;-76
2022/05/14 06:50:42;;;;;;;27.92;5.18;;;;;;;;;;5047566;28;20033;-77
2022/05/14 06:53:09;;;;;;;21.73;4.88;;;;;;;;;;5039679;28;20025;-75
2022/05/14 06:55:36;;;;;;;22.85;4.65;;;;;;;;;;5040233;28;20444;-75
2022/05/14 06:58:03;;;;;;;22.77;4.45;;;;;;;;;;5049986;28;20017;-74
2022/05/14 07:00:29;;;;;;;21.75;4.55;;;;;;;;;;5048744;28;20501;-79
2022/05/14 07:08:25;;;;;;;21.90;4.50;;;;;;;;;;5041348;28;20071;-77
2022/05/14 07:10:51;;;;;;;19.13;4.60;;;;;;;;;;5047312;28;20029;-78
2022/05/14 07:13:17;;;;;;;24.77;4.75;;;;;;;;;;5030886;28;20044;-77
2022/05/14 07:15:43;;;;;;;24.63;4.75;;;;;;;;;;5050313;28;20135;-77
2022/05/14 07:18:09;;;;;;;26.05;5.13;;;;;;;;;;5042175;28;20708;-78
2022/05/14 07:20:35;;;;;;;28.48;5.10;;;;;;;;;;5046085;28;20079;-78
2022/05/14 07:23:02;;;;;;;24.55;5.38;;;;;;;;;;5045436;28;20481;-78
2022/05/14 07:25:28;;;;;;;22.88;4.65;;;;;;;;;;5026879;28;20116;-78
2022/05/14 07:27:54;;;;;;;20.02;4.82;;;;;;;;;;5027250;28;20033;-77
2022/05/14 07:30:20;;;;;;;28.20;5.18;;;;;;;;;;5051842;28;20072;-77
2022/05/14 07:32:47;;;;;;;24.23;5.15;;;;;;;;;;5045041;28;20037;-77
2022/05/14 07:35:13;;;;;;;20.83;5.05;;;;;;;;;;5012735;28;20049;-77
2022/05/14 07:37:44;;;;;;;18.13;4.80;;;;;;;;;;5049005;28;20380;-77
2022/05/14 07:40:16;;;;;;;17.58;4.45;;;;;;;;;;5047105;28;20029;-77
2022/05/14 07:42:42;;;;;;;;;;;;;;;;;;5037487;28;20412;-77
2022/05/14 07:45:11;;;;;;;22.27;5.05;;;;;;;;;;5046664;28;19958;-75
2022/05/14 07:47:37;;;;;;;18.15;4.57;;;;;;;;;;5063104;28;20048;-80
2022/05/14 07:50:04;;;;;;;21.00;5.25;;;;;;;;;;5050041;28;20026;-74
2022/05/14 07:52:30;;;;;;;17.15;4.20;;;;;;;;;;5048743;28;20040;-75
2022/05/14 07:54:58;;;;;;;19.85;4.28;;;;;;;;;;5045947;28;20041;-78
2022/05/14 07:57:24;;;;;;;18.27;5.00;;;;;;;;;;5041759;28;20056;-77
2022/05/14 07:59:50;;;;;;;20.77;5.22;;;;;;;;;;5029982;28;20048;-78
2022/05/14 08:02:28;;;;;;;17.20;4.50;;;;;;;;;;5059140;28;20040;-77
2022/05/14 08:04:55;;;;;;;21.73;4.97;;;;;;;;;;5040916;28;20032;-77
2022/05/14 08:07:21;;;;;;;24.63;5.65;;;;;;;;;;5043027;28;20025;-79
2022/05/14 08:09:47;;;;;;;17.95;4.72;;;;;;;;;;5034306;28;20041;-77
2022/05/14 08:12:13;;;;;;;21.75;4.90;;;;;;;;;;5049814;28;20033;-78
2022/05/14 08:14:39;;;;;;;25.52;5.28;;;;;;;;;;5036220;28;20026;-78
2022/05/14 08:17:07;;;;;;;15.20;5.18;;;;;;;;;;5040069;28;20040;-77
2022/05/14 08:19:33;;;;;;;22.02;5.38;;;;;;;;;;5049834;28;20045;-78
2022/05/14 08:24:43;;;;;;;18.95;4.85;;;;;;;;;;5044658;28;20036;-78
2022/05/14 08:27:10;;;;;;;22.15;4.70;;;;;;;;;;5045631;28;20037;-77
2022/05/14 08:29:36;;;;;;;18.67;5.60;;;;;;;;;;5044512;28;20029;-77
2022/05/14 08:32:03;;;;;;;25.58;5.00;;;;;;;;;;5051017;28;21010;-76
2022/05/14 08:34:29;;;;;;;22.48;5.03;;;;;;;;;;5049997;28;20037;-76
2022/05/14 08:36:56;;;;;;;16.42;4.50;;;;;;;;;;5051791;28;20115;-75
2022/05/14 08:39:23;;;;;;;18.90;5.05;;;;;;;;;;5050445;28;20030;-77
2022/05/14 08:41:50;;;;;;;19.35;4.95;;;;;;;;;;5048751;28;20124;-77
2022/05/14 08:44:18;;;;;;;21.20;4.63;;;;;;;;;;5044818;28;20022;-78
2022/05/14 08:46:45;;;;;;;20.98;5.28;;;;;;;;;;5060226;28;20496;-77
2022/05/14 08:49:16;;;;;;;24.92;7.15;;;;;;;;;;5048782;28;20025;-74
2022/05/14 08:51:44;;;;;;;22.35;5.50;;;;;;;;;;5033301;28;20030;-74
2022/05/14 08:54:10;;;;;;;23.83;5.30;;;;;;;;;;5050701;28;20041;-75
2022/05/14 08:56:40;;;;;;;18.88;5.13;;;;;;;;;;5033719;28;20100;-75
2022/05/14 08:59:26;;;;;;;24.20;5.10;;;;;;;;;;5042053;28;20104;-75
2022/05/14 09:01:53;;;;;;;18.67;4.75;;;;;;;;;;5059270;28;20017;-75
2022/05/14 09:04:20;;;;;;;18.08;4.53;;;;;;;;;;5037519;28;20049;-76
2022/05/14 09:06:47;;;;;;;21.17;5.40;;;;;;;;;;5041090;28;20033;-76
2022/05/14 09:09:14;;;;;;;22.65;5.10;;;;;;;;;;5025783;28;20036;-76
2022/05/14 09:11:48;;;;;;;19.35;5.15;;;;;;;;;;5050500;28;20530;-75
2022/05/14 09:14:25;;;;;;;17.90;4.40;;;;;;;;;;5043077;28;20052;-74
2022/05/14 09:16:59;;;;;;;33.92;14.68;;;;;;;;;;5052357;28;20083;-74
2022/05/14 09:19:31;;;;;;;25.23;6.78;;;;;;;;;;5046519;28;20041;-77
2022/05/14 09:21:58;;;;;;;18.83;5.30;;;;;;;;;;5046406;28;20079;-75
2022/05/14 09:24:27;;;;;;;22.27;5.20;;;;;;;;;;5046997;28;20048;-76
2022/05/14 09:26:57;;;;;;;28.45;5.68;;;;;;;;;;5043594;28;20033;-76
2022/05/14 09:29:23;;;;;;;24.58;4.90;;;;;;;;;;5031493;28;20044;-76
2022/05/14 09:31:55;;;;;;;19.42;4.50;;;;;;;;;;5056225;28;20033;-75
2022/05/14 09:34:23;;;;;;;24.15;5.30;;;;;;;;;;5031491;28;20036;-75
2022/05/14 09:36:51;;;;;;;20.30;4.93;;;;;;;;;;5050171;28;20033;-76
2022/05/14 09:39:19;;;;;;;21.20;5.00;;;;;;;;;;5036310;28;20354;-75
2022/05/14 09:41:47;;;;;;;23.50;5.20;;;;;;;;;;5041830;28;20427;-76
2022/05/14 09:44:20;;;;;;;21.88;4.65;;;;;;;;;;5030024;28;20036;-76
2022/05/14 09:46:47;;;;;;;17.73;4.32;;;;;;;;;;5050959;28;20123;-75
2022/05/14 09:49:18;;;;;;;24.15;4.60;;;;;;;;;;5048937;28;20096;-76
2022/05/14 09:51:51;;;;;;;20.23;4.60;;;;;;;;;;5038588;28;20036;-76
2022/05/14 09:54:18;;;;;;;18.13;4.47;;;;;;;;;;5018346;28;20029;-76
2022/05/14 09:56:48;;;;;;;17.13;5.00;;;;;;;;;;5047140;28;20028;-76
2022/05/14 09:59:24;;;;;;;25.65;6.30;;;;;;;;;;5029889;28;20025;-75
2022/05/14 10:01:54;;;;;;;18.90;5.10;;;;;;;;;;5061193;28;20028;-75
2022/05/14 10:04:26;;;;;;;22.17;4.65;;;;;;;;;;5032205;28;20036;-76
2022/05/14 10:06:57;;;;;;;19.15;5.13;;;;;;;;;;5049361;28;20404;-76
2022/05/14 10:09:23;;;;;;;20.85;6.18;;;;;;;;;;5049472;28;20032;-77
2022/05/14 10:12:01;;;;;;;20.38;4.72;;;;;;;;;;5042564;28;20060;-75
2022/05/14 10:14:27;;;;;;;23.35;5.18;;;;;;;;;;5043531;28;20028;-75
2022/05/14 10:16:59;;;;;;;19.45;4.82;;;;;;;;;;5044648;28;20045;-75
2022/05/14 10:19:40;;;;;;;25.23;5.80;;;;;;;;;;5049317;28;20041;-74
2022/05/14 10:22:11;;;;;;;19.30;5.00;;;;;;;;;;5045614;28;20819;-74
2022/05/14 10:28:01;;;;;;;16.98;4.50;;;;;;;;;;5043801;28;20048;-75
2022/05/14 10:30:42;;;;;;;22.02;5.90;;;;;;;;;;5038960;28;20021;-74
2022/05/14 10:33:09;;;;;;;22.20;5.07;;;;;;;;;;5040818;28;20040;-75
2022/05/14 10:35:50;;;;;;;24.73;7.72;;;;;;;;;;5046573;28;20032;-74
2022/05/14 10:38:27;;;;;;;17.63;5.55;;;;;;;;;;5018995;28;20485;-75
2022/05/14 10:40:56;;;;;;;22.10;5.55;;;;;;;;;;5028253;28;20036;-75
2022/05/14 10:43:39;;;;;;;17.45;4.53;;;;;;;;;;5045430;28;20033;-75
2022/05/14 10:46:10;;;;;;;21.30;5.47;;;;;;;;;;5035655;28;20029;-76
2022/05/14 10:48:41;;;;;;;17.58;5.28;;;;;;;;;;5037547;28;20060;-76
2022/05/14 10:51:08;;;;;;;;;;;;;;;;;;5044578;28;20037;-76
2022/05/14 10:53:34;;;;;;;18.10;4.53;;;;;;;;;;5050917;28;19962;-76
2022/05/14 10:56:10;;;;;;;19.88;5.32;;;;;;;;;;5042642;28;20033;-74
2022/05/14 10:58:54;;;;;;;23.00;5.90;;;;;;;;;;5046470;28;20033;-75
2022/05/14 11:01:27;;;;;;;17.63;4.57;;;;;;;;;;5047346;28;20082;-75
2022/05/14 11:03:58;;;;;;;22.42;5.28;;;;;;;;;;5044216;28;20102;-75
2022/05/14 11:06:31;;;;;;;19.02;5.22;;;;;;;;;;5025736;28;20083;-75
2022/05/14 11:08:57;;;;;;;25.63;5.55;;;;;;;;;;5049619;28;20021;-74
2022/05/14 11:11:33;;;;;;;19.42;6.30;;;;;;;;;;5041696;28;20029;-76
2022/05/14 11:14:07;;;;;;;21.00;5.60;;;;;;;;;;5045247;28;20037;-74
2022/05/14 11:16:36;;;;;;;24.08;4.88;;;;;;;;;;5047921;28;20392;-74
2022/05/14 11:19:04;;;;;;;17.75;4.68;;;;;;;;;;5049577;28;20092;-74
2022/05/14 11:21:41;;;;;;;18.38;4.18;;;;;;;;;;5027813;28;20045;-74
2022/05/14 11:24:07;;;;;;;23.23;5.22;;;;;;;;;;5049697;28;20030;-74
2022/05/14 11:26:43;;;;;;;22.15;4.80;;;;;;;;;;5051263;28;20037;-75
2022/05/14 11:29:14;;;;;;;17.60;5.50;;;;;;;;;;5054707;28;20060;-74
2022/05/14 11:31:49;;;;;;;20.90;5.38;;;;;;;;;;5032392;28;20087;-73
2022/05/14 11:34:17;;;;;;;20.17;5.13;;;;;;;;;;5031807;28;20101;-72
2022/05/14 11:36:56;;;;;;;18.02;4.30;;;;;;;;;;5049391;28;20040;-74
2022/05/14 11:39:24;;;;;;;15.88;4.93;;;;;;;;;;5050506;28;20029;-73
2022/05/14 11:41:52;;;;;;;21.65;5.68;;;;;;;;;;5032643;28;20078;-74
2022/05/14 11:44:33;;;;;;;17.65;4.50;;;;;;;;;;5034605;28;20029;-74
2022/05/14 11:46:59;;;;;;;17.50;4.53;;;;;;;;;;5056606;28;20153;-74
2022/05/14 11:49:34;;;;;;;33.63;4.78;;;;;;;;;;5049173;28;20042;-74
2022/05/14 11:52:09;;;;;;;20.08;4.60;;;;;;;;;;5036304;28;20064;-74
2022/05/14 11:54:36;;;;;;;20.38;4.85;;;;;;;;;;5051343;28;20053;-74
2022/05/14 11:57:15;;;;;;;17.88;4.75;;;;;;;;;;5041449;28;20129;-74
2022/05/14 11:59:48;;;;;;;20.20;5.32;;;;;;;;;;5024933;28;20029;-74
2022/05/14 12:02:33;;;;;;;21.85;5.13;;;;;;;;;;5057956;28;20029;-74
2022/05/14 12:05:00;;;;;;;22.25;5.18;;;;;;;;;;5053008;28;20028;-74
2022/05/14 12:07:38;;;;;;;23.85;5.25;;;;;;;;;;5033090;28;20087;-74
2022/05/14 12:10:07;;;;;;;22.58;4.97;;;;;;;;;;5036908;28;20376;-74
2022/05/14 12:12:49;;;;;;;16.63;4.55;;;;;;;;;;5036880;28;20040;-74
2022/05/14 12:15:18;;;;;;;15.27;4.40;;;;;;;;;;5053421;28;20060;-74
2022/05/14 12:17:48;;;;;;;15.73;4.32;;;;;;;;;;5056412;28;20025;-74
2022/05/14 12:20:18;;;;;;;16.50;4.50;;;;;;;;;;5042816;28;20056;-74
2022/05/14 12:22:51;;;;;;;17.05;4.20;;;;;;;;;;5048203;28;20025;-74
2022/05/14 12:25:17;;;;;;;21.00;4.85;;;;;;;;;;5048087;28;20469;-74
2022/05/14 12:27:48;;;;;;;19.92;4.43;;;;;;;;;;5041465;28;20149;-74
2022/05/14 12:30:14;;;;;;;18.45;4.65;;;;;;;;;;5053615;28;20106;-73
2022/05/14 12:35:31;;;;;;;17.83;4.97;;;;;;;;;;5032769;28;20084;-74
2022/05/14 12:37:59;;;;;;;19.00;4.47;;;;;;;;;;5050400;28;20041;-73
2022/05/14 12:40:33;;;;;;;18.27;4.45;;;;;;;;;;5051975;28;20055;-74
2022/05/14 12:43:00;;;;;;;18.88;4.13;;;;;;;;;;5048682;28;20047;-74
2022/05/14 12:45:34;;;;;;;21.88;4.55;;;;;;;;;;5049467;28;20048;-74
2022/05/14 12:48:02;;;;;;;19.55;4.25;;;;;;;;;;5053731;28;20028;-73
2022/05/14 12:50:32;;;;;;;19.38;4.72;;;;;;;;;;5015609;28;20037;-74
2022/05/14 12:53:11;;;;;;;16.80;4.85;;;;;;;;;;5049237;28;20059;-73
2022/05/14 12:55:39;;;;;;;16.88;4.55;;;;;;;;;;5032445;28;20103;-73
2022/05/14 12:58:06;;;;;;;19.30;4.40;;;;;;;;;;5043313;28;20033;-73
2022/05/14 13:00:37;;;;;;;18.30;4.43;;;;;;;;;;5039987;28;20025;-73
2022/05/14 13:03:32;;;;;;;15.80;4.40;;;;;;;;;;5050461;28;20064;-73
2022/05/14 13:06:01;;;;;;;20.05;5.03;;;;;;;;;;5019002;28;20128;-74
2022/05/14 13:08:27;;;;;;;18.08;4.78;;;;;;;;;;5051110;28;20119;-74
2022/05/14 13:10:58;;;;;;;17.55;4.78;;;;;;;;;;5048916;28;20036;-74
2022/05/14 13:13:41;;;;;;;20.65;5.10;;;;;;;;;;5041615;28;20083;-74
2022/05/14 13:16:15;;;;;;;17.63;4.72;;;;;;;;;;5056091;28;20036;-74
2022/05/14 13:18:46;;;;;;;23.67;4.85;;;;;;;;;;5031825;28;20053;-74
2022/05/14 13:21:18;;;;;;;14.05;4.28;;;;;;;;;;5038228;28;20025;-74
2022/05/14 13:23:55;;;;;;;23.17;4.65;;;;;;;;;;5052134;28;20037;-73
2022/05/14 13:26:39;;;;;;;24.90;4.43;;;;;;;;;;5032748;28;20021;-74
2022/05/14 13:29:26;;;;;;;18.40;3.97;;;;;;;;;;5041039;28;20017;-74
2022/05/14 13:32:04;;;;;;;17.23;4.22;;;;;;;;;;5058001;28;20095;-73
2022/05/14 13:37:24;;;;;;;16.20;4.53;;;;;;;;;;5044451;28;20043;-73
2022/05/14 13:39:52;;;;;;;17.80;4.20;;;;;;;;;;5043962;28;20030;-73
2022/05/14 13:42:23;;;;;;;18.13;4.25;;;;;;;;;;5037887;28;20045;-73
2022/05/14 13:44:51;;;;;;;23.20;4.55;;;;;;;;;;5051956;28;20058;-73
2022/05/14 13:47:17;;;;;;;17.67;4.63;;;;;;;;;;5042747;28;20055;-74
2022/05/14 13:49:44;;;;;;;16.70;4.13;;;;;;;;;;5049353;28;20037;-73
2022/05/14 13:52:10;;;;;;;19.20;3.80;;;;;;;;;;5048709;28;20112;-73
2022/05/14 13:54:41;;;;;;;17.65;4.63;;;;;;;;;;5044373;28;20058;-73
2022/05/14 13:57:12;;;;;;;17.55;3.78;;;;;;;;;;5051213;28;20025;-73
2022/05/14 13:59:39;;;;;;;14.32;3.83;;;;;;;;;;5051227;28;20033;-73
2022/05/14 14:02:24;;;;;;;20.25;5.57;;;;;;;;;;5035816;28;20025;-74
2022/05/14 14:04:52;;;;;;;19.60;4.65;;;;;;;;;;5049927;28;20108;-74
2022/05/14 14:07:18;;;;;;;17.85;4.93;;;;;;;;;;5047211;28;20080;-74
2022/05/14 14:09:44;;;;;;;15.90;4.53;;;;;;;;;;5048576;28;20025;-74
2022/05/14 14:12:11;;;;;;;16.77;4.10;;;;;;;;;;5030681;28;20041;-74
2022/05/14 14:14:38;;;;;;;18.98;5.30;;;;;;;;;;5030565;28;20088;-74
2022/05/14 14:17:04;;;;;;;24.45;5.20;;;;;;;;;;5044024;28;20131;-74
2022/05/14 14:19:31;;;;;;;15.60;4.07;;;;;;;;;;5042315;28;20049;-74
2022/05/14 14:22:00;;;;;;;23.58;5.80;;;;;;;;;;5045958;28;20013;-74
2022/05/14 14:24:27;;;;;;;22.85;5.22;;;;;;;;;;5048448;28;20033;-74
2022/05/14 14:26:53;;;;;;;21.73;4.93;;;;;;;;;;5047059;28;20088;-74
2022/05/14 14:29:19;;;;;;;19.63;4.65;;;;;;;;;;5032291;28;20455;-73
2022/05/14 14:31:46;;;;;;;25.10;4.85;;;;;;;;;;5046339;28;20095;-74
2022/05/14 14:34:12;;;;;;;19.77;4.55;;;;;;;;;;5042197;28;20048;-73
2022/05/14 14:36:39;;;;;;;19.02;4.43;;;;;;;;;;5050913;28;20088;-74
2022/05/14 14:39:06;;;;;;;18.40;4.30;;;;;;;;;;5037053;28;20079;-74
2022/05/14 14:41:32;;;;;;;16.67;5.20;;;;;;;;;;5031591;28;20028;-74
2022/05/14 14:43:58;;;;;;;21.45;4.25;;;;;;;;;;5046925;28;20124;-74
2022/05/14 14:46:24;;;;;;;21.33;5.20;;;;;;;;;;5051448;28;20082;-74
2022/05/14 14:48:53;;;;;;;18.73;5.28;;;;;;;;;;5048991;28;20036;-74
2022/05/14 14:51:20;;;;;;;20.10;6.10;;;;;;;;;;5044942;28;20479;-72
2022/05/14 14:53:46;;;;;;;19.65;5.13;;;;;;;;;;5049670;28;20033;-72
2022/05/14 14:56:14;;;;;;;19.90;4.95;;;;;;;;;;5026087;28;20075;-76
2022/05/14 14:58:42;;;;;;;22.45;4.75;;;;;;;;;;5044922;28;20105;-76
2022/05/14 15:01:09;;;;;;;23.80;4.93;;;;;;;;;;5047985;28;20392;-73
2022/05/14 15:03:38;;;;;;;19.73;4.78;;;;;;;;;;5053016;28;20029;-73
2022/05/14 15:06:04;;;;;;;24.42;5.50;;;;;;;;;;5054612;28;20071;-73